createdAt,value
2019-04-07T00:00:41.223Z,11.80
2019-04-07T00:01:41.218Z,13.60
2019-04-07T00:02:41.265Z,13.50
2019-04-07T00:03:41.214Z,15.30
2019-04-07T00:04:41.439Z,12.30
2019-04-07T00:05:41.524Z,10.60
2019-04-07T00:06:41.626Z,12.00
2019-04-07T00:07:41.406Z,12.50
2019-04-07T00:08:41.138Z,11.40
2019-04-07T00:09:41.135Z,14.80
2019-04-07T00:10:41.376Z,13.80
2019-04-07T00:11:41.105Z,13.90
2019-04-07T00:12:41.289Z,13.10
2019-04-07T00:13:41.411Z,16.20
2019-04-07T00:14:41.093Z,13.60
2019-04-07T00:15:41.549Z,15.80
2019-04-07T00:16:41.048Z,14.20
2019-04-07T00:17:41.038Z,14.30
2019-04-07T00:18:41.635Z,13.80
2019-04-07T00:19:41.023Z,12.50
2019-04-07T00:20:42.037Z,16.50
2019-04-07T00:21:40.998Z,14.00
2019-04-07T00:22:40.983Z,13.20
2019-04-07T00:23:40.973Z,15.50
2019-04-07T00:24:40.967Z,12.20
2019-04-07T00:25:41.469Z,11.00
2019-04-07T00:26:40.942Z,13.30
2019-04-07T00:27:40.935Z,15.60
2019-04-07T00:28:40.917Z,12.60
2019-04-07T00:29:40.924Z,14.30
2019-04-07T00:30:40.895Z,13.40
2019-04-07T00:31:41.521Z,14.80
2019-04-07T00:32:41.385Z,12.70
2019-04-07T00:33:41.361Z,13.60
2019-04-07T00:34:41.477Z,12.70
2019-04-07T00:35:40.848Z,12.80
2019-04-07T00:36:40.828Z,13.20
2019-04-07T00:37:40.818Z,11.00
2019-04-07T00:38:40.806Z,12.70
2019-04-07T00:39:41.370Z,15.60
2019-04-07T00:40:40.784Z,12.80
2019-04-07T00:41:40.776Z,15.00
2019-04-07T00:42:41.331Z,13.50
2019-04-07T00:43:40.759Z,12.10
2019-04-07T00:44:40.751Z,12.00
2019-04-07T00:45:40.735Z,15.30
2019-04-07T00:46:40.719Z,12.70
2019-04-07T00:47:40.706Z,12.90
2019-04-07T00:48:40.779Z,14.10
2019-04-07T00:49:41.241Z,14.50
2019-04-07T00:50:40.677Z,12.20
2019-04-07T00:51:41.000Z,14.50
2019-04-07T00:52:40.652Z,9.60
2019-04-07T00:53:40.853Z,13.00
2019-04-07T00:54:40.895Z,10.60
2019-04-07T00:55:40.833Z,12.80
2019-04-07T00:56:41.083Z,12.00
2019-04-07T00:57:40.770Z,12.60
2019-04-07T00:58:40.657Z,14.40
2019-04-07T00:59:40.842Z,14.70
2019-04-07T01:00:40.563Z,11.90
2019-04-07T01:01:40.558Z,13.90
2019-04-07T01:02:41.315Z,12.70
2019-04-07T01:03:40.532Z,11.50
2019-04-07T01:04:40.708Z,13.20
2019-04-07T01:05:42.480Z,11.90
2019-04-07T01:06:40.634Z,11.40
2019-04-07T01:07:41.034Z,13.50
2019-04-07T01:08:40.478Z,15.20
2019-04-07T01:09:40.476Z,14.70
2019-04-07T01:10:40.602Z,12.00
2019-04-07T01:11:40.446Z,10.60
2019-04-07T01:12:41.114Z,15.40
2019-04-07T01:13:40.422Z,13.50
2019-04-07T01:14:41.656Z,10.80
2019-04-07T01:15:40.657Z,12.50
2019-04-07T01:16:40.740Z,10.30
2019-04-07T01:17:40.377Z,11.30
2019-04-07T01:18:40.521Z,13.00
2019-04-07T01:19:40.697Z,11.10
2019-04-07T01:20:40.374Z,13.60
2019-04-07T01:21:40.412Z,9.90
2019-04-07T01:22:40.800Z,12.10
2019-04-07T01:23:40.318Z,11.50
2019-04-07T01:24:40.670Z,13.30
2019-04-07T01:25:40.949Z,10.70
2019-04-07T01:26:40.513Z,12.90
2019-04-07T01:27:40.267Z,15.30
2019-04-07T01:28:40.705Z,11.80
2019-04-07T01:29:40.245Z,13.30
2019-04-07T01:30:40.436Z,13.00
2019-04-07T01:31:40.470Z,14.80
2019-04-07T01:32:40.214Z,11.20
2019-04-07T01:33:40.201Z,14.40
2019-04-07T01:34:40.457Z,13.00
2019-04-07T01:35:48.225Z,12.00
2019-04-07T01:36:41.333Z,16.00
2019-04-07T01:37:40.649Z,11.80
2019-04-07T01:38:40.151Z,12.70
2019-04-07T01:39:40.155Z,12.60
2019-04-07T01:40:40.136Z,13.10
2019-04-07T01:41:40.760Z,10.80
2019-04-07T01:42:40.106Z,15.20
2019-04-07T01:43:40.471Z,11.40
2019-04-07T01:44:40.091Z,13.80
2019-04-07T01:45:40.083Z,12.60
2019-04-07T01:46:40.473Z,10.80
2019-04-07T01:47:40.050Z,11.40
2019-04-07T01:48:40.048Z,12.20
2019-04-07T01:49:40.174Z,12.80
2019-04-07T01:50:40.140Z,16.10
2019-04-07T01:51:40.135Z,14.00
2019-04-07T01:52:39.993Z,11.90
2019-04-07T01:53:39.988Z,12.80
2019-04-07T01:54:39.986Z,14.60
2019-04-07T01:55:40.060Z,11.70
2019-04-07T01:56:40.003Z,12.30
2019-04-07T01:57:39.957Z,16.20
2019-04-07T01:58:40.689Z,16.90
2019-04-07T01:59:39.927Z,12.50
2019-04-07T02:00:40.349Z,9.90
2019-04-07T02:01:40.087Z,10.90
2019-04-07T02:02:40.107Z,9.80
2019-04-07T02:03:39.875Z,11.20
2019-04-07T02:04:39.965Z,12.00
2019-04-07T02:05:39.861Z,12.80
2019-04-07T02:06:39.960Z,12.60
2019-04-07T02:07:40.092Z,12.80
2019-04-07T02:08:40.238Z,13.90
2019-04-07T02:09:40.233Z,11.90
2019-04-07T02:10:39.793Z,10.40
2019-04-07T02:11:39.814Z,12.60
2019-04-07T02:12:40.152Z,11.10
2019-04-07T02:13:40.433Z,18.70
2019-04-07T02:14:39.750Z,10.50
2019-04-07T02:15:40.546Z,14.80
2019-04-07T02:16:39.979Z,12.40
2019-04-07T02:17:39.725Z,11.90
2019-04-07T02:18:40.046Z,12.40
2019-04-07T02:19:39.697Z,11.90
2019-04-07T02:20:39.685Z,12.60
2019-04-07T02:21:40.323Z,10.40
2019-04-07T02:22:39.666Z,14.40
2019-04-07T02:23:39.652Z,11.40
2019-04-07T02:24:39.922Z,13.20
2019-04-07T02:25:39.634Z,11.70
2019-04-07T02:26:39.628Z,11.90
2019-04-07T02:27:39.647Z,16.30
2019-04-07T02:28:39.601Z,11.90
2019-04-07T02:29:40.060Z,11.00
2019-04-07T02:30:39.586Z,15.20
2019-04-07T02:31:40.129Z,12.60
2019-04-07T02:32:39.552Z,16.40
2019-04-07T02:33:39.545Z,10.80
2019-04-07T02:34:40.097Z,10.50
2019-04-07T02:35:39.522Z,13.90
2019-04-07T02:36:39.527Z,13.00
2019-04-07T02:37:39.503Z,10.80
2019-04-07T02:38:39.490Z,13.30
2019-04-07T02:39:39.476Z,9.60
2019-04-07T02:40:39.597Z,11.90
2019-04-07T02:41:40.182Z,13.40
2019-04-07T02:42:39.687Z,11.30
2019-04-07T02:43:40.260Z,10.30
2019-04-07T02:44:39.499Z,13.00
2019-04-07T02:45:39.412Z,12.00
2019-04-07T02:46:39.543Z,11.30
2019-04-07T02:47:39.446Z,13.70
2019-04-07T02:48:39.582Z,14.10
2019-04-07T02:49:39.505Z,12.90
2019-04-07T02:50:39.902Z,11.70
2019-04-07T02:51:40.318Z,11.50
2019-04-07T02:52:39.343Z,14.20
2019-04-07T02:53:39.323Z,11.30
2019-04-07T02:54:40.030Z,9.60
2019-04-07T02:55:39.300Z,11.00
2019-04-07T02:56:39.886Z,11.50
2019-04-07T02:57:40.319Z,13.80
2019-04-07T02:58:40.308Z,10.20
2019-04-07T02:59:42.293Z,14.20
2019-04-07T03:00:39.434Z,12.80
2019-04-07T03:01:39.246Z,11.50
2019-04-07T03:02:39.370Z,14.20
2019-04-07T03:03:39.489Z,10.90
2019-04-07T03:04:39.200Z,15.80
2019-04-07T03:05:39.197Z,13.80
2019-04-07T03:06:45.979Z,11.00
2019-04-07T03:07:41.169Z,16.30
2019-04-07T03:08:39.638Z,14.70
2019-04-07T03:09:40.030Z,11.30
2019-04-07T03:10:39.145Z,15.50
2019-04-07T03:11:39.348Z,14.60
2019-04-07T03:12:39.382Z,14.80
2019-04-07T03:13:39.323Z,12.70
2019-04-07T03:14:39.282Z,12.50
2019-04-07T03:15:39.087Z,11.70
2019-04-07T03:16:39.466Z,12.50
2019-04-07T03:17:39.059Z,12.30
2019-04-07T03:18:39.115Z,14.40
2019-04-07T03:19:39.338Z,12.00
2019-04-07T03:20:39.265Z,13.40
2019-04-07T03:21:39.043Z,14.40
2019-04-07T03:22:39.744Z,11.20
2019-04-07T03:23:39.002Z,12.90
2019-04-07T03:24:38.988Z,11.60
2019-04-07T03:25:39.757Z,11.60
2019-04-07T03:26:38.965Z,11.10
2019-04-07T03:27:38.948Z,12.90
2019-04-07T03:28:39.916Z,12.00
2019-04-07T03:29:38.927Z,13.40
2019-04-07T03:30:40.948Z,10.90
2019-04-07T03:31:40.679Z,13.80
2019-04-07T03:32:42.873Z,12.20
2019-04-07T03:33:43.055Z,11.50
2019-04-07T03:34:40.872Z,16.90
2019-04-07T03:35:41.023Z,11.50
2019-04-07T03:37:09.586Z,11.70
2019-04-07T03:37:44.265Z,17.10
2019-04-07T03:38:40.982Z,14.70
2019-04-07T03:39:39.390Z,14.20
2019-04-07T03:40:39.036Z,13.20
2019-04-07T03:41:39.929Z,16.00
2019-04-07T03:42:38.785Z,12.50
2019-04-07T03:43:39.083Z,13.30
2019-04-07T03:44:38.764Z,14.80
2019-04-07T03:45:38.748Z,13.60
2019-04-07T03:46:38.937Z,12.40
2019-04-07T03:47:39.573Z,14.30
2019-04-07T03:48:38.733Z,10.90
2019-04-07T03:49:39.452Z,15.90
2019-04-07T03:50:38.802Z,14.20
2019-04-07T03:51:39.376Z,11.80
2019-04-07T03:52:39.396Z,11.80
2019-04-07T03:53:39.303Z,18.20
2019-04-07T03:54:38.650Z,13.20
2019-04-07T03:55:38.642Z,13.40
2019-04-07T03:56:38.633Z,11.80
2019-04-07T03:57:39.021Z,13.30
2019-04-07T03:58:39.681Z,13.20
2019-04-07T03:59:38.610Z,12.10
2019-04-07T04:00:39.293Z,13.20
2019-04-07T04:01:38.577Z,13.30
2019-04-07T04:02:39.093Z,12.70
2019-04-07T04:03:38.732Z,11.30
2019-04-07T04:04:39.445Z,13.50
2019-04-07T04:05:39.347Z,15.70
2019-04-07T04:06:38.872Z,13.40
2019-04-07T04:07:38.862Z,12.00
2019-04-07T04:08:38.498Z,17.90
2019-04-07T04:09:40.879Z,11.10
2019-04-07T04:10:38.619Z,11.60
2019-04-07T04:11:39.408Z,12.20
2019-04-07T04:12:38.596Z,12.90
2019-04-07T04:13:38.446Z,12.90
2019-04-07T04:14:38.453Z,13.50
2019-04-07T04:15:39.447Z,11.30
2019-04-07T04:16:38.426Z,13.00
2019-04-07T04:17:39.140Z,17.00
2019-04-07T04:18:39.237Z,14.00
2019-04-07T04:19:38.390Z,13.20
2019-04-07T04:20:38.796Z,11.50
2019-04-07T04:21:38.359Z,13.80
2019-04-07T04:22:39.567Z,14.60
2019-04-07T04:23:41.570Z,17.80
2019-04-07T04:24:38.331Z,11.80
2019-04-07T04:25:38.565Z,18.50
2019-04-07T04:26:38.299Z,12.70
2019-04-07T04:27:38.793Z,14.90
2019-04-07T04:28:39.025Z,13.30
2019-04-07T04:29:39.325Z,10.40
2019-04-07T04:30:38.266Z,16.40
2019-04-07T04:31:38.907Z,15.80
2019-04-07T04:32:39.342Z,15.20
2019-04-07T04:33:38.244Z,12.50
2019-04-07T04:34:39.004Z,13.10
2019-04-07T04:35:38.838Z,14.10
2019-04-07T04:36:38.212Z,17.40
2019-04-07T04:37:44.222Z,16.30
2019-04-07T04:38:39.176Z,16.70
2019-04-07T04:39:38.785Z,15.00
2019-04-07T04:40:38.210Z,11.20
2019-04-07T04:41:38.138Z,12.50
2019-04-07T04:42:38.130Z,11.60
2019-04-07T04:43:38.493Z,14.40
2019-04-07T04:44:38.117Z,15.50
2019-04-07T04:45:38.653Z,16.20
2019-04-07T04:46:38.743Z,16.00
2019-04-07T04:47:39.171Z,17.00
2019-04-07T04:48:38.825Z,13.20
2019-04-07T04:49:38.477Z,13.30
2019-04-07T04:50:38.486Z,16.80
2019-04-07T04:51:39.452Z,14.00
2019-04-07T04:52:38.330Z,18.30
2019-04-07T04:53:38.141Z,14.40
2019-04-07T04:54:38.839Z,11.90
2019-04-07T04:55:37.994Z,13.30
2019-04-07T04:56:37.975Z,14.50
2019-04-07T04:57:47.979Z,15.80
2019-04-07T04:58:38.189Z,14.50
2019-04-07T04:59:37.945Z,12.60
2019-04-07T05:00:38.451Z,15.00
2019-04-07T05:01:37.935Z,11.00
2019-04-07T05:02:38.285Z,16.60
2019-04-07T05:03:38.333Z,18.10
2019-04-07T05:04:38.510Z,13.60
2019-04-07T05:05:38.086Z,14.60
2019-04-07T05:06:37.950Z,15.80
2019-04-07T05:07:49.978Z,15.70
2019-04-07T05:08:39.207Z,13.20
2019-04-07T05:09:44.533Z,12.40
2019-04-07T05:10:38.835Z,13.80
2019-04-07T05:11:37.812Z,14.50
2019-04-07T05:12:37.948Z,14.10
2019-04-07T05:13:38.493Z,12.80
2019-04-07T05:14:37.892Z,17.20
2019-04-07T05:15:37.904Z,19.80
2019-04-07T05:16:37.757Z,12.30
2019-04-07T05:17:38.137Z,17.00
2019-04-07T05:18:38.285Z,13.40
2019-04-07T05:19:37.726Z,16.10
2019-04-07T05:20:37.730Z,11.70
2019-04-07T05:21:37.775Z,14.00
2019-04-07T05:22:38.044Z,14.60
2019-04-07T05:23:38.483Z,15.40
2019-04-07T05:24:37.712Z,15.80
2019-04-07T05:25:37.844Z,14.40
2019-04-07T05:26:37.756Z,12.50
2019-04-07T05:27:38.236Z,14.90
2019-04-07T05:28:38.036Z,14.80
2019-04-07T05:29:37.632Z,11.30
2019-04-07T05:30:38.008Z,12.80
2019-04-07T05:31:38.526Z,16.50
2019-04-07T05:32:37.773Z,16.40
2019-04-07T05:33:37.576Z,17.80
2019-04-07T05:34:37.809Z,14.50
2019-04-07T05:35:37.969Z,13.40
2019-04-07T05:36:37.955Z,12.10
2019-04-07T05:37:37.547Z,15.00
2019-04-07T05:38:37.757Z,13.20
2019-04-07T05:39:37.514Z,17.60
2019-04-07T05:40:37.509Z,14.50
2019-04-07T05:41:37.524Z,12.60
2019-04-07T05:42:37.963Z,14.70
2019-04-07T05:43:38.130Z,13.10
2019-04-07T05:44:37.462Z,13.80
2019-04-07T05:45:37.710Z,13.00
2019-04-07T05:46:40.426Z,18.30
2019-04-07T05:47:37.521Z,17.90
2019-04-07T05:48:38.219Z,12.00
2019-04-07T05:49:37.781Z,12.70
2019-04-07T05:50:37.383Z,18.10
2019-04-07T05:51:37.384Z,16.70
2019-04-07T05:52:39.822Z,17.00
2019-04-07T05:53:37.716Z,12.80
2019-04-07T05:54:37.864Z,15.80
2019-04-07T05:55:37.330Z,14.10
2019-04-07T05:56:37.990Z,16.10
2019-04-07T05:57:37.785Z,13.20
2019-04-07T05:58:38.682Z,14.20
2019-04-07T05:59:37.688Z,15.00
2019-04-07T06:00:37.277Z,14.90
2019-04-07T06:01:37.292Z,13.30
2019-04-07T06:02:37.533Z,13.30
2019-04-07T06:03:41.200Z,12.70
2019-04-07T06:04:38.227Z,15.10
2019-04-07T06:05:37.660Z,13.10
2019-04-07T06:06:39.878Z,13.10
2019-04-07T06:07:37.825Z,14.90
2019-04-07T06:08:39.420Z,14.60
2019-04-07T06:09:37.341Z,15.00
2019-04-07T06:10:37.165Z,13.20
2019-04-07T06:11:37.889Z,12.50
2019-04-07T06:12:40.337Z,16.20
2019-04-07T06:13:38.131Z,12.70
2019-04-07T06:14:37.964Z,17.80
2019-04-07T06:15:37.110Z,17.10
2019-04-07T06:16:37.770Z,14.60
2019-04-07T06:17:37.862Z,16.30
2019-04-07T06:18:37.723Z,15.90
2019-04-07T06:19:39.484Z,11.80
2019-04-07T06:20:37.054Z,13.60
2019-04-07T06:21:37.755Z,16.70
2019-04-07T06:22:37.108Z,14.20
2019-04-07T06:23:37.532Z,14.00
2019-04-07T06:24:37.011Z,13.40
2019-04-07T06:25:41.166Z,13.70
2019-04-07T06:26:41.518Z,15.10
2019-04-07T06:27:36.979Z,15.60
2019-04-07T06:28:37.053Z,14.20
2019-04-07T06:29:37.747Z,17.10
2019-04-07T06:30:37.859Z,12.50
2019-04-07T06:31:36.942Z,17.40
2019-04-07T06:32:38.480Z,16.50
2019-04-07T06:33:38.243Z,13.40
2019-04-07T06:34:39.887Z,14.70
2019-04-07T06:35:36.889Z,15.20
2019-04-07T06:36:37.378Z,15.50
2019-04-07T06:37:37.396Z,15.40
2019-04-07T06:38:41.512Z,13.40
2019-04-07T06:39:38.984Z,16.50
2019-04-07T06:40:37.273Z,16.10
2019-04-07T06:41:36.824Z,13.90
2019-04-07T06:42:37.521Z,15.50
2019-04-07T06:43:38.782Z,15.40
2019-04-07T06:44:36.849Z,14.90
2019-04-07T06:45:36.780Z,19.80
2019-04-07T06:46:36.921Z,14.40
2019-04-07T06:47:37.168Z,21.70
2019-04-07T06:48:39.041Z,17.40
2019-04-07T06:49:37.093Z,18.00
2019-04-07T06:50:47.718Z,12.10
2019-04-07T06:51:37.716Z,18.50
2019-04-07T06:52:40.579Z,15.10
2019-04-07T06:53:36.705Z,18.30
2019-04-07T06:54:36.698Z,14.30
2019-04-07T06:55:36.735Z,13.20
2019-04-07T06:56:36.978Z,15.20
2019-04-07T06:57:37.699Z,14.40
2019-04-07T06:58:40.789Z,15.80
2019-04-07T06:59:38.437Z,15.10
2019-04-07T07:00:36.612Z,11.80
2019-04-07T07:01:37.355Z,15.00
2019-04-07T07:02:36.836Z,15.00
2019-04-07T07:03:38.827Z,19.90
2019-04-07T07:04:36.732Z,16.30
2019-04-07T07:05:36.564Z,15.70
2019-04-07T07:06:37.305Z,15.20
2019-04-07T07:07:36.538Z,17.90
2019-04-07T07:08:44.356Z,15.00
2019-04-07T07:09:38.771Z,16.90
2019-04-07T07:10:38.963Z,18.10
2019-04-07T07:11:40.656Z,15.00
2019-04-07T07:12:39.729Z,15.70
2019-04-07T07:13:36.853Z,14.90
2019-04-07T07:14:42.618Z,13.30
2019-04-07T07:15:37.485Z,14.60
2019-04-07T07:16:41.080Z,12.80
2019-04-07T07:17:37.683Z,14.60
2019-04-07T07:18:36.443Z,18.80
2019-04-07T07:19:36.411Z,16.40
2019-04-07T07:20:37.275Z,15.30
2019-04-07T07:21:39.295Z,14.90
2019-04-07T07:22:36.375Z,15.40
2019-04-07T07:23:36.453Z,17.60
2019-04-07T07:24:36.973Z,13.70
2019-04-07T07:25:36.402Z,16.30
2019-04-07T07:26:36.621Z,14.00
2019-04-07T07:27:38.935Z,17.90
2019-04-07T07:28:36.753Z,22.90
2019-04-07T07:29:36.301Z,12.70
2019-04-07T07:30:37.110Z,19.50
2019-04-07T07:31:36.909Z,20.40
2019-04-07T07:32:37.345Z,13.70
2019-04-07T07:33:38.366Z,17.10
2019-04-07T07:34:39.879Z,16.10
2019-04-07T07:35:37.686Z,16.40
2019-04-07T07:36:36.271Z,17.60
2019-04-07T07:37:36.214Z,17.60
2019-04-07T07:38:36.231Z,15.60
2019-04-07T07:39:36.230Z,15.80
2019-04-07T07:40:36.212Z,17.50
2019-04-07T07:41:36.576Z,19.70
2019-04-07T07:42:36.576Z,14.70
2019-04-07T07:43:36.919Z,14.40
2019-04-07T07:44:38.395Z,13.30
2019-04-07T07:45:36.254Z,17.80
2019-04-07T07:46:36.440Z,18.30
2019-04-07T07:47:36.321Z,18.30
2019-04-07T07:48:36.705Z,13.80
2019-04-07T07:49:39.887Z,20.30
2019-04-07T07:50:37.988Z,14.20
2019-04-07T07:51:38.447Z,12.90
2019-04-07T07:52:36.044Z,15.70
2019-04-07T07:53:36.172Z,14.10
2019-04-07T07:54:36.771Z,13.20
2019-04-07T07:55:37.629Z,15.80
2019-04-07T07:56:36.703Z,13.10
2019-04-07T07:57:35.987Z,14.70
2019-04-07T07:58:35.982Z,16.70
2019-04-07T07:59:38.999Z,16.40
2019-04-07T08:00:39.833Z,16.40
2019-04-07T08:01:37.351Z,16.10
2019-04-07T08:02:36.517Z,12.30
2019-04-07T08:03:36.079Z,16.50
2019-04-07T08:04:36.604Z,18.30
2019-04-07T08:05:36.596Z,15.40
2019-04-07T08:06:38.475Z,14.50
2019-04-07T08:07:35.973Z,14.20
2019-04-07T08:08:36.338Z,14.30
2019-04-07T08:09:35.857Z,12.70
2019-04-07T08:10:36.339Z,14.80
2019-04-07T08:11:35.845Z,14.90
2019-04-07T08:12:35.927Z,23.00
2019-04-07T08:13:42.237Z,13.90
2019-04-07T08:14:37.140Z,13.80
2019-04-07T08:15:36.095Z,13.70
2019-04-07T08:16:35.800Z,12.00
2019-04-07T08:17:36.532Z,13.10
2019-04-07T08:18:37.227Z,12.10
2019-04-07T08:19:38.214Z,14.80
2019-04-07T08:20:37.390Z,13.30
2019-04-07T08:21:35.743Z,12.60
2019-04-07T08:22:41.227Z,17.60
2019-04-07T08:23:37.391Z,14.40
2019-04-07T08:24:36.220Z,13.20
2019-04-07T08:25:35.815Z,12.40
2019-04-07T08:26:35.711Z,15.30
2019-04-07T08:27:35.673Z,11.60
2019-04-07T08:28:36.149Z,12.80
2019-04-07T08:29:37.490Z,11.80
2019-04-07T08:30:36.119Z,15.10
2019-04-07T08:31:35.623Z,12.20
2019-04-07T08:32:35.622Z,12.10
2019-04-07T08:33:35.615Z,14.50
2019-04-07T08:34:36.160Z,10.90
2019-04-07T08:35:38.815Z,16.10
2019-04-07T08:36:35.596Z,14.80
2019-04-07T08:37:36.453Z,14.10
2019-04-07T08:38:35.549Z,11.70
2019-04-07T08:39:36.531Z,9.80
2019-04-07T08:40:36.898Z,11.60
2019-04-07T08:41:39.699Z,15.30
2019-04-07T08:42:36.962Z,13.60
2019-04-07T08:43:36.217Z,13.80
2019-04-07T08:44:35.507Z,14.50
2019-04-07T08:45:36.010Z,13.30
2019-04-07T08:46:40.145Z,14.70
2019-04-07T08:47:36.467Z,10.40
2019-04-07T08:48:35.438Z,12.60
2019-04-07T08:49:36.438Z,11.30
2019-04-07T08:50:35.418Z,9.50
2019-04-07T08:51:36.177Z,10.90
2019-04-07T08:52:38.521Z,11.80
2019-04-07T08:53:36.381Z,9.90
2019-04-07T08:54:35.597Z,10.80
2019-04-07T08:55:35.562Z,14.80
2019-04-07T08:56:35.400Z,12.80
2019-04-07T08:57:35.819Z,9.80
2019-04-07T08:58:38.424Z,11.10
2019-04-07T08:59:35.402Z,12.50
2019-04-07T09:00:36.057Z,9.80
2019-04-07T09:01:36.090Z,12.70
2019-04-07T09:02:35.874Z,12.90
2019-04-07T09:03:35.837Z,14.30
2019-04-07T09:04:35.439Z,11.30
2019-04-07T09:05:35.442Z,11.10
2019-04-07T09:06:35.254Z,11.20
2019-04-07T09:07:35.266Z,10.10
2019-04-07T09:08:37.921Z,15.40
2019-04-07T09:09:38.029Z,11.10
2019-04-07T09:10:36.199Z,9.80
2019-04-07T09:11:35.196Z,10.10
2019-04-07T09:12:36.049Z,10.70
2019-04-07T09:13:35.262Z,10.00
2019-04-07T09:14:37.830Z,12.90
2019-04-07T09:15:35.158Z,11.10
2019-04-07T09:16:35.894Z,10.40
2019-04-07T09:17:43.677Z,11.00
2019-04-07T09:18:36.710Z,9.70
2019-04-07T09:19:36.082Z,12.80
2019-04-07T09:20:35.098Z,9.60
2019-04-07T09:21:39.844Z,11.70
2019-04-07T09:22:36.360Z,12.80
2019-04-07T09:23:35.454Z,9.30
2019-04-07T09:24:35.907Z,11.90
2019-04-07T09:25:35.828Z,10.70
2019-04-07T09:26:35.517Z,14.80
2019-04-07T09:27:35.280Z,11.10
2019-04-07T09:28:35.014Z,18.60
2019-04-07T09:29:35.320Z,12.30
2019-04-07T09:30:35.603Z,13.60
2019-04-07T09:31:35.017Z,9.90
2019-04-07T09:32:35.759Z,9.90
2019-04-07T09:33:37.464Z,12.10
2019-04-07T09:34:35.597Z,10.60
2019-04-07T09:35:36.104Z,7.70
2019-04-07T09:36:35.288Z,13.80
2019-04-07T09:37:34.962Z,11.30
2019-04-07T09:38:35.468Z,9.70
2019-04-07T09:39:52.906Z,9.40
2019-04-07T09:40:36.006Z,12.30
2019-04-07T09:41:35.261Z,13.10
2019-04-07T09:42:35.563Z,8.60
2019-04-07T09:43:34.905Z,10.70
2019-04-07T09:44:37.631Z,10.50
2019-04-07T09:45:38.568Z,13.60
2019-04-07T09:46:35.456Z,9.50
2019-04-07T09:47:34.885Z,14.70
2019-04-07T09:48:35.432Z,13.40
2019-04-07T09:49:35.345Z,8.90
2019-04-07T09:50:34.967Z,9.10
2019-04-07T09:51:37.646Z,8.50
2019-04-07T09:52:36.016Z,12.10
2019-04-07T09:53:34.983Z,9.90
2019-04-07T09:54:34.749Z,13.70
2019-04-07T09:55:35.532Z,10.20
2019-04-07T09:56:35.314Z,11.70
2019-04-07T09:57:37.009Z,10.00
2019-04-07T09:58:35.051Z,9.00
2019-04-07T09:59:35.007Z,8.20
2019-04-07T10:00:35.266Z,9.60
2019-04-07T10:01:35.296Z,10.70
2019-04-07T10:02:35.698Z,7.80
2019-04-07T10:03:35.463Z,12.50
2019-04-07T10:04:35.643Z,10.80
2019-04-07T10:05:34.673Z,8.40
2019-04-07T10:06:34.662Z,9.80
2019-04-07T10:07:34.883Z,7.70
2019-04-07T10:08:35.193Z,7.50
2019-04-07T10:09:34.614Z,13.10
2019-04-07T10:10:35.007Z,9.80
2019-04-07T10:11:34.596Z,9.80
2019-04-07T10:12:34.630Z,8.80
2019-04-07T10:13:34.607Z,9.40
2019-04-07T10:14:35.062Z,10.40
2019-04-07T10:15:35.258Z,9.10
2019-04-07T10:16:35.380Z,9.60
2019-04-07T10:17:34.528Z,10.40
2019-04-07T10:18:34.865Z,13.80
2019-04-07T10:19:35.169Z,8.90
2019-04-07T10:20:34.556Z,10.00
2019-04-07T10:21:35.042Z,9.10
2019-04-07T10:22:34.524Z,11.30
2019-04-07T10:23:35.328Z,9.60
2019-04-07T10:24:34.665Z,9.70
2019-04-07T10:25:34.458Z,7.40
2019-04-07T10:26:34.458Z,7.40
2019-04-07T10:27:34.451Z,11.30
2019-04-07T10:28:36.729Z,9.70
2019-04-07T10:29:35.331Z,6.90
2019-04-07T10:30:34.897Z,9.50
2019-04-07T10:31:34.997Z,8.20
2019-04-07T10:32:34.429Z,10.30
2019-04-07T10:33:34.437Z,9.60
2019-04-07T10:34:34.373Z,9.20
2019-04-07T10:35:34.902Z,7.50
2019-04-07T10:36:34.397Z,7.60
2019-04-07T10:37:34.488Z,10.10
2019-04-07T10:38:34.339Z,9.90
2019-04-07T10:39:34.995Z,9.10
2019-04-07T10:40:34.649Z,7.00
2019-04-07T10:41:34.661Z,8.20
2019-04-07T10:42:34.658Z,8.10
2019-04-07T10:43:34.964Z,10.00
2019-04-07T10:44:34.288Z,9.00
2019-04-07T10:45:34.884Z,8.00
2019-04-07T10:46:34.295Z,9.10
2019-04-07T10:47:34.743Z,8.30
2019-04-07T10:48:34.342Z,10.60
2019-04-07T10:49:35.116Z,8.80
2019-04-07T10:50:34.651Z,11.30
2019-04-07T10:51:34.327Z,10.30
2019-04-07T10:52:34.217Z,6.80
2019-04-07T10:53:35.269Z,8.60
2019-04-07T10:54:34.186Z,10.70
2019-04-07T10:55:34.191Z,8.00
2019-04-07T10:56:34.453Z,10.40
2019-04-07T10:57:34.469Z,11.10
2019-04-07T11:01:06.643Z,8.90
2019-04-07T11:01:53.411Z,9.20
2019-04-07T11:02:39.315Z,8.20
2019-04-07T11:03:40.537Z,9.40
2019-04-07T11:04:58.808Z,12.20
2019-04-07T11:05:48.261Z,8.20
2019-04-07T11:06:40.649Z,8.90
2019-04-07T11:07:43.842Z,7.30
2019-04-07T11:08:46.541Z,9.40
2019-04-07T11:09:40.568Z,9.50
2019-04-07T11:11:06.625Z,7.50
2019-04-07T11:11:39.218Z,8.40
2019-04-07T11:12:43.641Z,8.00
2019-04-07T11:13:40.335Z,8.60
2019-04-07T11:14:42.993Z,10.60
2019-04-07T11:15:40.717Z,8.40
2019-04-07T11:18:38.420Z,7.20
2019-04-07T11:19:36.155Z,8.50
2019-04-07T11:20:40.025Z,7.70
2019-04-07T11:21:35.950Z,8.10
2019-04-07T11:22:36.881Z,7.80
2019-04-07T11:23:37.401Z,12.70
2019-04-07T11:24:39.140Z,7.70
2019-04-07T11:25:46.132Z,7.20
2019-04-07T11:26:41.831Z,8.40
2019-04-07T11:27:42.159Z,9.10
2019-04-07T11:29:21.396Z,12.20
2019-04-07T11:29:37.661Z,8.10
2019-04-07T11:30:36.676Z,9.70
2019-04-07T11:31:45.812Z,9.90
2019-04-07T11:32:37.747Z,8.20
2019-04-07T11:33:38.103Z,9.70
2019-04-07T11:34:36.738Z,8.10
2019-04-07T11:35:35.735Z,10.00
2019-04-07T11:36:35.307Z,7.90
2019-04-07T11:37:37.569Z,7.40
2019-04-07T11:38:36.952Z,8.20
2019-04-07T11:39:37.959Z,7.60
2019-04-07T11:40:42.580Z,10.30
2019-04-07T11:41:37.230Z,10.60
2019-04-07T11:42:41.900Z,9.20
2019-04-07T11:43:36.918Z,10.80
2019-04-07T11:44:35.648Z,10.10
2019-04-07T11:45:37.699Z,10.20
2019-04-07T11:46:38.912Z,10.60
2019-04-07T11:47:40.551Z,7.50
2019-04-07T12:54:35.279Z,6.80
2019-04-07T12:55:04.876Z,8.60
2019-04-07T12:56:04.910Z,7.50
2019-04-07T12:57:06.600Z,6.90
2019-04-07T12:58:04.944Z,7.20
2019-04-07T12:59:04.768Z,8.20
2019-04-07T13:00:04.871Z,8.30
2019-04-07T13:01:12.755Z,7.70
2019-04-07T13:02:07.921Z,9.20
2019-04-07T13:03:14.022Z,8.60
2019-04-07T13:04:06.735Z,7.60
2019-04-07T13:05:06.404Z,7.80
2019-04-07T13:06:08.662Z,11.40
2019-04-07T13:07:05.552Z,9.30
2019-04-07T13:08:05.878Z,7.40
2019-04-07T13:09:06.045Z,8.60
2019-04-07T13:10:05.450Z,8.90
2019-04-07T13:11:07.452Z,9.60
2019-04-07T13:12:06.068Z,9.40
2019-04-07T13:13:06.869Z,7.60
2019-04-07T13:14:08.119Z,6.60
2019-04-07T13:15:08.513Z,7.80
2019-04-07T13:16:07.033Z,8.40
2019-04-07T13:17:07.614Z,8.70
2019-04-07T13:18:07.310Z,11.90
2019-04-07T13:19:10.237Z,8.90
2019-04-07T13:20:06.225Z,8.70
2019-04-07T13:21:05.382Z,11.50
2019-04-07T13:22:04.950Z,11.80
2019-04-07T13:23:05.971Z,7.10
2019-04-07T13:24:10.902Z,9.90
2019-04-07T13:25:06.355Z,7.30
2019-04-07T13:26:04.497Z,8.20
2019-04-07T13:27:06.009Z,11.40
2019-04-07T13:28:06.439Z,11.10
2019-04-07T13:29:06.304Z,9.50
2019-04-07T13:30:05.757Z,7.70
2019-04-07T13:31:04.884Z,7.40
2019-04-07T13:32:04.501Z,8.00
2019-04-07T13:33:04.601Z,8.50
2019-04-07T13:34:04.441Z,9.90
2019-04-07T13:35:04.409Z,8.20
2019-04-07T13:36:06.148Z,9.50
2019-04-07T13:37:04.647Z,8.60
2019-04-07T13:38:04.477Z,10.40
2019-04-07T13:39:04.528Z,7.60
2019-04-07T13:40:05.080Z,9.30
2019-04-07T13:41:04.372Z,12.50
2019-04-07T13:42:04.329Z,8.70
2019-04-07T13:43:04.536Z,10.00
2019-04-07T13:44:06.990Z,9.20
2019-04-07T13:45:04.483Z,7.50
2019-04-07T13:46:04.315Z,8.80
2019-04-07T13:47:07.338Z,11.20
2019-04-07T13:48:05.747Z,9.20
2019-04-07T13:49:04.447Z,8.00
2019-04-07T13:50:04.980Z,7.30
2019-04-07T13:51:04.308Z,7.10
2019-04-07T13:52:04.275Z,8.40
2019-04-07T13:53:04.256Z,8.00
2019-04-07T13:54:05.475Z,9.70
2019-04-07T13:55:05.160Z,9.70
2019-04-07T13:56:04.999Z,9.90
2019-04-07T13:57:04.472Z,8.80
2019-04-07T13:58:04.486Z,8.80
2019-04-07T13:59:08.145Z,9.90
2019-04-07T14:00:05.325Z,8.80
2019-04-07T14:01:04.123Z,9.60
2019-04-07T14:02:04.265Z,10.60
2019-04-07T14:03:04.820Z,12.20
2019-04-07T14:04:04.102Z,11.70
2019-04-07T14:05:07.703Z,9.60
2019-04-07T14:06:05.070Z,7.70
2019-04-07T14:07:04.058Z,12.80